Flight Track Log - Related Links

Times and Time Zones

All times are in EDT time to prevent confusion due to time zone crossing. See the FSR411 flight status page for this flight to view local times or setup timezone preferences in your user account.

Time Position Orientation Groundspeed Altitude Reporting Facility
EDT Latitude Longitude Course Direction KTS MPH feet Rate Location/Type
Thu 04:53:11 PM 39.9069 -88.1594 155° Southeast 256 295 7,800  Level Chicago Center
Thu 04:54:13 PM 39.8281 -88.1106 155° Southeast 297 342 9,900 2,084 Climbing Chicago Center
Thu 04:54:46 PM 39.7761 -88.0772 154° Southeast 316 364 11,100 2,968 Climbing Indianapolis Center
Thu 04:55:48 PM 39.6856 -88.0194 154° Southeast 349 402 14,600 3,387 Climbing Indianapolis Center
Thu 04:56:50 PM 39.5942 -87.9600 153° Southeast 363 418 18,100 3,097 Climbing Indianapolis Center
Thu 04:57:52 PM 39.4986 -87.8975 153° Southeast 378 435 21,000 2,371 Climbing Indianapolis Center
Thu 04:58:54 PM 39.3975 -87.8333 154° Southeast 401 461 23,000 1,984 Climbing Indianapolis Center
Thu 04:59:56 PM 39.2819 -87.7589 153° Southeast 433 498 25,100 2,177 Climbing Indianapolis Center
Thu 05:00:58 PM 39.1456 -87.6697 153° Southeast 456 525 27,500 2,129 Climbing Indianapolis Center
Thu 05:02:00 PM 39.0306 -87.5969 154° Southeast 459 528 29,500 1,839 Climbing Indianapolis Center
Thu 05:03:02 PM 38.9156 -87.5228 153° Southeast 461 531 31,300 1,597 Climbing Indianapolis Center
Thu 05:04:04 PM 38.7992 -87.4508 154° Southeast 463 533 32,800 1,403 Climbing Indianapolis Center
Thu 05:05:06 PM 38.6819 -87.3758 153° Southeast 468 539 34,200 960 Climbing Indianapolis Center
Thu 05:06:09 PM 38.5622 -87.3011 154° Southeast 477 549 34,800 384 Climbing Indianapolis Center
Thu 05:07:11 PM 38.4392 -87.2244 154° Southeast 491 565 35,000 726 Climbing Indianapolis Center
Thu 05:08:13 PM 38.3003 -87.1489 157° South 503 579 36,300 1,355 Climbing Indianapolis Center
Thu 05:09:15 PM 38.1722 -87.0956 162° South 493 567 37,800 1,403 Climbing Indianapolis Center
Thu 05:10:17 PM 38.0397 -87.0406 162° South 473 544 39,200 1,016 Climbing Indianapolis Center
Thu 05:11:19 PM 37.9161 -86.9867 161° South 469 540 39,900 629 Climbing Indianapolis Center
Thu 05:12:21 PM 37.7672 -86.9186 160° South 473 544 40,500 532 Climbing Indianapolis Center
Thu 05:13:23 PM 37.6417 -86.8614 160° South 476 548 41,000 242 Climbing Indianapolis Center
Thu 05:14:25 PM 37.5131 -86.8036 160° South 479 551 41,000  Level Indianapolis Center
Thu 05:15:27 PM 37.3875 -86.7450 160° South 478 550 41,000  Level Indianapolis Center
Thu 05:16:29 PM 37.2608 -86.6886 160° South 478 550 41,000  Level Indianapolis Center
Thu 05:17:31 PM 37.1342 -86.6325 161° South 478 550 41,000  Level Indianapolis Center
Thu 05:18:04 PM 37.0519 -86.5933 159° South 479 551 41,000  Level Memphis Center
Thu 05:19:04 PM 36.9381 -86.5519 164° South 479 551 41,000  Level Memphis Center
Thu 05:20:04 PM 36.8117 -86.5036 163° South 474 545 41,000  Level Memphis Center
Thu 05:21:04 PM 36.6828 -86.4528 162° South 479 551 41,000  Level Memphis Center
Thu 05:22:04 PM 36.5614 -86.3733 152° Southeast 485 558 41,000  Level Memphis Center
Thu 05:23:04 PM 36.4353 -86.2739 148° Southeast 492 566 41,000  Level Memphis Center
Thu 05:24:04 PM 36.3217 -86.1817 147° Southeast 492 566 41,000  Level Memphis Center
Thu 05:25:04 PM 36.2064 -86.0975 149° Southeast 487 560 41,000  Level Memphis Center
Thu 05:26:04 PM 36.0906 -86.0086 148° Southeast 493 567 41,000  Level Memphis Center
Thu 05:27:04 PM 35.9808 -85.9117 144° Southeast 488 562 41,000 -450 Level Memphis Center
Thu 05:28:04 PM 35.9164 -85.7972 125° Southeast 458 527 40,100 -1,450 Descending Memphis Center
Thu 05:29:04 PM 35.8525 -85.6550 119° Southeast 458 527 38,100 -2,250 Descending Memphis Center
Thu 05:30:04 PM 35.7867 -85.5153 120° Southeast 463 533 35,600 -1,863 Descending Memphis Center
Thu 05:31:45 PM 35.6642 -85.2656 121° Southeast 475 547 33,100 -1,379 Descending Atlanta Center
Thu 05:32:45 PM 35.5650 -85.1519 137° Southeast 480 552 31,900 -1,550 Descending Atlanta Center
Thu 05:33:45 PM 35.4278 -85.1244 171° South 460 529 30,000 -1,950 Descending Atlanta Center
Thu 05:34:45 PM 35.2878 -85.1381 185° South 474 545 28,000 -1,850 Descending Atlanta Center
Thu 05:35:45 PM 35.1522 -85.1439 182° South 483 556 26,300 -1,550 Descending Atlanta Center
Thu 05:36:45 PM 35.0247 -85.1522 183° South 478 550 24,900 -1,150 Descending Atlanta Center
Thu 05:37:45 PM 34.8953 -85.1531 180° South 471 542 24,000 -450 Descending Atlanta Center
Thu 05:38:45 PM 34.7661 -85.1464 178° South 471 542 24,000 -50 Level Atlanta Center
Thu 05:39:45 PM 34.6556 -85.1422 178° South 453 521 23,900 -1,450 Descending Atlanta Center
Thu 05:40:45 PM 34.5389 -85.1181 170° South 435 501 21,100 -3,400 Descending Atlanta Center
Thu 05:41:45 PM 34.4289 -85.0436 151° Southeast 412 474 17,100 -3,950 Descending Atlanta Center
Thu 05:42:45 PM 34.3356 -84.9669 146° Southeast 406 467 13,200 -3,150 Descending Atlanta Center
Thu 05:43:45 PM 34.2589 -84.8883 140° Southeast 394 453 10,800 -2,550 Descending Atlanta Center
Thu 05:44:45 PM 34.1967 -84.8172 137° Southeast 349 402 8,100 -2,550 Descending Atlanta Center
Thu 05:45:45 PM 34.1344 -84.7517 139° Southeast 305 351 5,700 -1,550 Descending Atlanta Center
Thu 05:46:45 PM 34.0911 -84.6758 125° Southeast 277 319 5,000 -400 Descending Atlanta Center
Thu 05:47:45 PM 34.0558 -84.6106 123° Southeast 246 283 4,900  Descending Atlanta Center
Thu 05:48:45 PM 34.0167 -84.5450 126° Southeast 240 276 5,000  Climbing Atlanta Center
Thu 05:49:45 PM 33.9875 -84.4847 120° Southeast 240 276 4,900 -500 Descending Atlanta Center
Thu 05:50:45 PM 33.9647 -84.4119 111° Southeast 235 270 4,000 -482 Descending Atlanta Center
Thu 05:51:37 PM 33.9500 -84.3500 106° East 228 262 4,000  Level Atlanta TRACON
Thu 05:52:37 PM 33.9167 -84.2667 116° Southeast 224 258 4,000 -48 Level Atlanta TRACON
Thu 05:53:43 PM 33.9000 -84.2000 107° East 206 237 3,900 -476 Descending Atlanta TRACON
Thu 05:54:43 PM 33.8500 -84.1667 151° Southeast 211 243 3,000 -450 Descending Atlanta TRACON
Thu 05:55:43 PM 33.8167 -84.2167 231° Southwest 187 215 3,000 -158 Level Atlanta TRACON
Thu 05:56:37 PM 33.8167 -84.2667 270° West 182 209 2,700 -526 Descending Atlanta TRACON
Thu 05:57:37 PM 33.8333 -84.3167 292° West 153 176 2,000 -700 Descending Atlanta TRACON
Thu 05:59:00 PM 33.8667 -84.3000 306° West  Level FlightAware Approximate
Thu 06:06:00 PM 33.8756 -84.3020 306° West  Level Estimated

Login

Don't have an account? Register now (free) for customized features, flight alerts, and more!